Time;durP1;ratioP1;P1;durP2;ratioP2;P2;SDS_P1;SDS_P2;PMS_P1;PMS_P2;Temp;Humidity;BMP_temperature;BMP_pressure;BME280_temperature;BME280_humidity;BME280_pressure;Samples;Min_cycle;Max_cycle;Signal;HPM_P1;HPM_P2
2024/02/21 00:01:24;;;;;;;5.95;1.95;;;;;;;7.25;100.00;100439.63;4991517;28;20073;-63
2024/02/21 00:03:51;;;;;;;7.55;2.42;;;;;;;7.28;100.00;100429.91;5000258;28;20182;-63
2024/02/21 00:06:19;;;;;;;6.60;2.20;;;;;;;7.28;100.00;100416.16;4989935;28;20412;-63
2024/02/21 00:08:46;;;;;;;6.18;1.98;;;;;;;7.27;100.00;100396.06;4989469;28;20042;-63
2024/02/21 00:11:14;;;;;;;7.53;2.00;;;;;;;7.29;100.00;100360.75;4989458;28;20050;-63
2024/02/21 00:13:42;;;;;;;9.10;2.03;;;;;;;7.30;100.00;100353.28;4989088;28;20048;-63
2024/02/21 00:16:10;;;;;;;8.13;2.05;;;;;;;7.32;100.00;100343.56;4989527;28;20065;-63
2024/02/21 00:18:38;;;;;;;4.55;1.52;;;;;;;7.34;100.00;100335.75;4989443;28;20050;-63
2024/02/21 00:21:05;;;;;;;6.82;1.65;;;;;;;7.37;100.00;100326.03;4988890;28;20047;-63
2024/02/21 00:23:32;;;;;;;8.73;2.05;;;;;;;7.41;100.00;100315.16;4989562;28;20043;-63
2024/02/21 00:26:00;;;;;;;7.20;2.10;;;;;;;7.40;100.00;100303.34;4988143;28;20043;-63
2024/02/21 00:28:27;;;;;;;6.88;2.10;;;;;;;7.41;100.00;100313.22;4988256;28;20054;-63
2024/02/21 00:30:55;;;;;;;10.10;1.52;;;;;;;7.41;100.00;100304.97;4987130;28;20081;-63
2024/02/21 00:33:22;;;;;;;9.85;2.30;;;;;;;7.42;100.00;100298.28;4996442;28;20050;-63
2024/02/21 00:35:49;;;;;;;9.48;1.75;;;;;;;7.43;100.00;100304.59;4989360;28;20051;-63
2024/02/21 00:38:17;;;;;;;10.20;2.33;;;;;;;7.45;100.00;100302.31;4988768;28;20047;-63
2024/02/21 00:40:44;;;;;;;10.90;4.53;;;;;;;7.47;100.00;100300.84;4989019;28;20054;-63
2024/02/21 00:43:11;;;;;;;11.77;2.28;;;;;;;7.50;100.00;100283.66;4987540;28;20043;-63
2024/02/21 00:45:39;;;;;;;7.18;1.23;;;;;;;7.51;100.00;100271.50;4988636;28;20054;-62
2024/02/21 00:48:07;;;;;;;6.97;2.20;;;;;;;7.53;100.00;100260.94;4989242;28;20061;-63
2024/02/21 00:50:34;;;;;;;4.88;2.15;;;;;;;7.58;100.00;100252.47;4986858;28;20043;-61
2024/02/21 00:53:02;;;;;;;5.15;2.28;;;;;;;7.59;100.00;100237.56;4988437;28;20504;-61
2024/02/21 00:55:29;;;;;;;6.38;1.20;;;;;;;7.60;100.00;100239.16;4985592;28;20054;-61
2024/02/21 00:57:56;;;;;;;3.50;1.05;;;;;;;7.62;100.00;100231.38;4987226;28;20066;-61
2024/02/21 01:00:24;;;;;;;1.85;0.63;;;;;;;7.65;100.00;100219.66;4992798;28;20043;-63
2024/02/21 01:02:51;;;;;;;7.18;1.45;;;;;;;7.70;100.00;100225.00;4988196;28;20058;-64
2024/02/21 01:05:20;;;;;;;3.08;0.90;;;;;;;7.75;100.00;100212.94;4976330;28;20270;-63
2024/02/21 01:07:47;;;;;;;3.10;0.70;;;;;;;7.80;100.00;100209.97;4988404;28;20075;-64
2024/02/21 01:10:15;;;;;;;9.88;1.25;;;;;;;7.83;100.00;100193.56;4987212;28;20042;-64
2024/02/21 01:12:42;;;;;;;1.67;0.68;;;;;;;7.88;100.00;100185.09;4988167;28;20048;-63
2024/02/21 01:15:11;;;;;;;7.57;1.55;;;;;;;7.91;100.00;100184.41;4983787;28;20065;-63
2024/02/21 01:17:40;;;;;;;4.00;1.20;;;;;;;7.96;100.00;100175.13;4986822;28;20683;-64
2024/02/21 01:20:08;;;;;;;1.27;1.02;;;;;;;7.96;100.00;100153.88;4988409;28;20508;-63
2024/02/21 01:22:35;;;;;;;3.58;1.15;;;;;;;7.99;100.00;100146.88;4987899;28;20077;-63
2024/02/21 01:25:03;;;;;;;3.20;1.02;;;;;;;7.99;100.00;100142.13;4988137;28;20050;-63
2024/02/21 01:27:30;;;;;;;4.45;1.67;;;;;;;8.02;100.00;100142.63;4984698;28;20664;-63
2024/02/21 01:29:58;;;;;;;5.38;1.40;;;;;;;8.00;100.00;100137.44;4987965;28;20061;-63
2024/02/21 01:32:25;;;;;;;9.60;1.17;;;;;;;8.02;100.00;100128.84;4987168;28;20053;-63
2024/02/21 01:34:52;;;;;;;5.20;1.73;;;;;;;8.03;100.00;100120.22;4987871;28;20061;-63
2024/02/21 01:37:20;;;;;;;4.45;1.52;;;;;;;8.04;100.00;100110.81;4987778;28;20050;-64
2024/02/21 01:39:49;;;;;;;2.83;2.13;;;;;;;8.05;100.00;100089.56;4986706;28;20045;-63
2024/02/21 01:42:16;;;;;;;6.32;4.00;;;;;;;8.04;100.00;100085.19;4987275;28;20043;-64
2024/02/21 01:44:44;;;;;;;6.40;2.17;;;;;;;8.05;100.00;100078.53;4987369;28;20061;-64
2024/02/21 01:47:13;;;;;;;4.55;1.52;;;;;;;8.05;100.00;100073.81;4986988;28;20051;-63
2024/02/21 01:49:41;;;;;;;4.50;1.65;;;;;;;8.05;100.00;100060.03;4987135;28;20042;-62
2024/02/21 01:52:11;;;;;;;3.20;1.55;;;;;;;8.08;100.00;100055.78;4987717;28;20042;-61
2024/02/21 01:54:39;;;;;;;3.95;1.75;;;;;;;8.08;100.00;100040.03;4987441;28;20042;-61
2024/02/21 01:57:07;;;;;;;3.50;2.75;;;;;;;8.09;100.00;100025.13;4986927;28;20050;-61
2024/02/21 01:59:35;;;;;;;8.15;2.10;;;;;;;8.08;100.00;100017.19;4987059;28;20050;-61
2024/02/21 02:02:03;;;;;;;3.72;1.95;;;;;;;8.06;100.00;100005.69;4982646;28;20069;-61
2024/02/21 02:04:30;;;;;;;7.70;2.65;;;;;;;8.03;100.00;99987.09;4984469;28;20038;-61
2024/02/21 02:07:02;;;;;;;11.20;2.40;;;;;;;7.97;100.00;99968.03;4987839;28;20046;-61
2024/02/21 02:09:30;;;;;;;7.20;2.33;;;;;;;7.94;100.00;99949.44;4986105;28;20039;-61
2024/02/21 02:11:58;;;;;;;5.82;2.17;;;;;;;7.92;100.00;99942.66;4987286;28;20527;-61
2024/02/21 02:14:26;;;;;;;11.23;3.80;;;;;;;7.89;100.00;99935.88;4986803;28;20504;-61
2024/02/21 02:16:53;;;;;;;13.75;4.20;;;;;;;7.87;100.00;99918.09;4986839;28;20057;-61
2024/02/21 02:19:21;;;;;;;13.27;7.25;;;;;;;7.86;100.00;99920.03;4986341;28;20054;-64
2024/02/21 02:21:58;;;;;;;17.90;7.22;;;;;;;7.85;100.00;99915.69;4986702;28;20049;-62
2024/02/21 02:24:26;;;;;;;18.23;8.35;;;;;;;7.82;100.00;99886.06;4984324;28;20512;-62
2024/02/21 02:26:53;;;;;;;16.20;10.10;;;;;;;7.79;100.00;99881.25;4987511;28;20062;-61
2024/02/21 02:29:21;;;;;;;22.63;8.95;;;;;;;7.78;100.00;99876.09;4984565;28;20053;-62
2024/02/21 02:31:49;;;;;;;20.25;7.32;;;;;;;7.76;100.00;99873.69;4986073;28;20069;-61
2024/02/21 02:34:16;;;;;;;12.63;6.72;;;;;;;7.76;100.00;99856.34;4986744;28;20605;-60
2024/02/21 02:36:44;;;;;;;20.67;7.80;;;;;;;7.75;100.00;99829.97;4981237;28;20054;-62
2024/02/21 02:39:11;;;;;;;14.65;7.30;;;;;;;7.74;100.00;99829.16;4986487;28;20046;-61
2024/02/21 02:41:38;;;;;;;15.95;6.90;;;;;;;7.72;100.00;99823.19;4985927;28;20044;-60
2024/02/21 02:44:06;;;;;;;22.65;9.52;;;;;;;7.74;100.00;99811.81;4986464;28;20058;-61
2024/02/21 02:46:34;;;;;;;11.65;6.80;;;;;;;7.74;100.00;99781.50;4986778;28;20072;-61
2024/02/21 02:49:01;;;;;;;15.65;6.82;;;;;;;7.74;100.00;99774.06;4987240;28;20061;-61
2024/02/21 02:51:29;;;;;;;14.27;6.85;;;;;;;7.75;100.00;99770.16;4989172;28;20054;-62
2024/02/21 02:53:57;;;;;;;15.35;5.85;;;;;;;7.77;100.00;99754.06;4974460;28;20054;-61
2024/02/21 02:56:24;;;;;;;15.70;6.45;;;;;;;7.78;100.00;99750.16;4985257;28;20055;-61
2024/02/21 02:58:51;;;;;;;17.33;5.85;;;;;;;7.79;100.00;99732.47;4985303;28;20089;-61
2024/02/21 03:01:19;;;;;;;18.55;6.35;;;;;;;7.81;100.00;99732.91;5070317;22;20058;-58
2024/02/21 03:03:47;;;;;;;11.50;5.65;;;;;;;7.82;100.00;99697.91;4986173;28;20054;-61
2024/02/21 03:06:14;;;;;;;15.35;6.38;;;;;;;7.83;100.00;99685.75;4986831;28;20744;-59
2024/02/21 03:08:42;;;;;;;15.13;8.15;;;;;;;7.83;100.00;99683.78;4986045;28;20046;-58
2024/02/21 03:11:10;;;;;;;14.85;5.40;;;;;;;7.83;100.00;99670.00;4986214;28;20054;-60
2024/02/21 03:13:38;;;;;;;6.13;3.38;;;;;;;7.84;100.00;99660.56;4985539;28;20459;-58
2024/02/21 03:16:06;;;;;;;7.88;3.05;;;;;;;7.85;100.00;99655.88;4985436;28;20061;-57
2024/02/21 03:18:33;;;;;;;6.43;2.17;;;;;;;7.84;100.00;99633.03;4986057;28;20038;-55
2024/02/21 03:21:00;;;;;;;7.55;1.50;;;;;;;7.85;100.00;99620.84;4986832;28;20416;-55
2024/02/21 03:23:28;;;;;;;3.53;1.65;;;;;;;7.88;100.00;99609.13;4985717;28;20062;-58
2024/02/21 03:25:55;;;;;;;2.90;0.85;;;;;;;7.90;100.00;99589.47;4984602;28;20058;-57
2024/02/21 03:28:22;;;;;;;2.22;0.98;;;;;;;7.89;100.00;99577.63;4986214;28;20520;-58
2024/02/21 03:30:50;;;;;;;2.08;1.67;;;;;;;7.90;100.00;99561.91;4985843;28;20046;-52
2024/02/21 03:33:17;;;;;;;1.63;0.90;;;;;;;7.90;100.00;99548.94;4985460;28;20050;-57
2024/02/21 03:35:44;;;;;;;6.22;1.02;;;;;;;7.90;100.00;99537.91;4986011;28;20050;-57
2024/02/21 03:38:12;;;;;;;0.82;0.60;;;;;;;7.91;100.00;99541.47;4986724;28;20050;-58
2024/02/21 03:40:39;;;;;;;1.15;1.10;;;;;;;7.92;100.00;99535.59;4985662;28;20042;-56
2024/02/21 03:43:07;;;;;;;1.13;0.68;;;;;;;7.94;100.00;99522.25;4985051;28;20054;-57
2024/02/21 03:45:34;;;;;;;1.60;0.52;;;;;;;7.97;100.00;99518.78;4984934;28;20488;-57
2024/02/21 03:48:02;;;;;;;0.70;0.47;;;;;;;7.99;100.00;99508.19;4985691;28;20046;-57
2024/02/21 03:50:29;;;;;;;1.17;0.77;;;;;;;8.02;100.00;99501.19;4986209;28;20057;-58
2024/02/21 03:52:57;;;;;;;1.23;0.50;;;;;;;8.06;100.00;99468.19;4982595;28;20046;-56
2024/02/21 03:55:24;;;;;;;0.90;0.60;;;;;;;8.10;100.00;99452.53;4985366;28;20057;-57
2024/02/21 03:57:52;;;;;;;0.75;0.57;;;;;;;8.12;100.00;99439.19;4985836;28;20070;-57
2024/02/21 04:00:20;;;;;;;0.60;0.40;;;;;;;8.15;100.00;99428.25;4986287;28;20495;-57
2024/02/21 04:02:47;;;;;;;5.05;0.85;;;;;;;8.15;100.00;99421.94;4985827;28;20050;-58
2024/02/21 04:05:16;;;;;;;0.98;0.43;;;;;;;8.16;100.00;99418.00;4986230;28;20050;-58
2024/02/21 04:07:43;;;;;;;0.77;0.57;;;;;;;8.16;100.00;99398.69;4987704;28;20058;-58
2024/02/21 04:10:12;;;;;;;0.80;0.57;;;;;;;8.17;100.00;99381.00;4990069;28;20050;-60
2024/02/21 04:12:39;;;;;;;1.58;0.98;;;;;;;8.17;100.00;99370.00;4988921;28;20045;-59
2024/02/21 04:15:07;;;;;;;2.88;1.50;;;;;;;8.16;100.00;99363.66;4989676;28;20069;-60
2024/02/21 04:17:34;;;;;;;0.98;0.60;;;;;;;8.16;100.00;99340.81;4988483;28;20057;-59
2024/02/21 04:20:05;;;;;;;1.88;0.82;;;;;;;8.15;100.00;99328.22;4985695;28;20081;-59
2024/02/21 04:22:33;;;;;;;3.10;2.00;;;;;;;8.16;100.00;99335.31;5004010;28;20061;-59
2024/02/21 04:25:01;;;;;;;0.77;0.60;;;;;;;8.16;100.00;99318.75;4989331;28;20427;-60
2024/02/21 04:27:28;;;;;;;2.42;0.80;;;;;;;8.18;100.00;99305.44;4989160;28;20066;-60
2024/02/21 04:29:56;;;;;;;0.60;0.60;;;;;;;8.19;100.00;99298.75;4990077;28;20046;-57
2024/02/21 04:32:23;;;;;;;0.95;0.85;;;;;;;8.21;100.00;99277.13;4989261;28;20046;-58
2024/02/21 04:34:50;;;;;;;1.02;0.80;;;;;;;8.23;100.00;99269.28;4988259;28;20539;-60
2024/02/21 04:37:18;;;;;;;0.70;0.70;;;;;;;8.25;100.00;99269.72;4988622;28;20069;-57
2024/02/21 04:39:46;;;;;;;1.00;0.90;;;;;;;8.25;100.00;99259.50;4989714;28;20054;-59
2024/02/21 04:42:13;;;;;;;0.70;0.70;;;;;;;8.27;100.00;99250.88;4988794;28;20057;-58
2024/02/21 04:44:41;;;;;;;1.08;0.73;;;;;;;8.30;100.00;99239.13;4988629;28;20058;-57
2024/02/21 04:47:08;;;;;;;0.57;0.43;;;;;;;8.31;100.00;99226.94;4988765;28;20050;-59
2024/02/21 04:49:35;;;;;;;3.10;0.60;;;;;;;8.33;100.00;99219.09;4988420;28;20073;-58
2024/02/21 04:52:03;;;;;;;1.05;0.50;;;;;;;8.34;100.00;99204.91;4989121;28;20500;-60
2024/02/21 04:54:31;;;;;;;0.28;0.28;;;;;;;8.36;100.00;99191.59;4987340;28;20050;-61
2024/02/21 04:56:58;;;;;;;0.60;0.50;;;;;;;8.39;100.00;99182.56;4988722;28;20038;-60
2024/02/21 04:59:25;;;;;;;0.38;0.22;;;;;;;8.40;100.00;99172.31;4988250;28;20054;-59
2024/02/21 05:01:53;;;;;;;0.65;0.40;;;;;;;8.42;100.00;99164.47;4987729;28;20050;-59
2024/02/21 05:04:20;;;;;;;0.52;0.52;;;;;;;8.45;100.00;99145.22;4988961;28;20050;-59
2024/02/21 05:06:48;;;;;;;0.28;0.10;;;;;;;8.49;100.00;99134.28;4988520;28;20534;-58
2024/02/21 05:09:15;;;;;;;1.10;0.10;;;;;;;8.51;100.00;99104.34;4988148;28;20046;-58
2024/02/21 05:11:42;;;;;;;0.10;0.10;;;;;;;8.54;100.00;99103.63;4988475;28;20042;-59
2024/02/21 05:14:10;;;;;;;0.15;0.15;;;;;;;8.55;100.00;99103.22;4987150;28;20522;-59
2024/02/21 05:16:38;;;;;;;0.65;0.10;;;;;;;8.58;100.00;99093.41;4988053;28;20419;-57
2024/02/21 05:19:06;;;;;;;0.47;0.05;;;;;;;8.60;100.00;99096.63;4986328;28;20500;-60
2024/02/21 05:21:33;;;;;;;0.25;0.05;;;;;;;8.62;100.00;99083.25;4988178;28;20058;-59
2024/02/21 05:24:01;;;;;;;0.00;0.00;;;;;;;8.64;100.00;99069.06;4987923;28;20235;-60
2024/02/21 05:26:28;;;;;;;0.05;0.05;;;;;;;8.66;100.00;99056.47;4988111;28;20042;-61
2024/02/21 05:28:56;;;;;;;0.25;0.00;;;;;;;8.68;100.00;99054.16;4987529;28;20054;-58
2024/02/21 05:31:23;;;;;;;0.35;0.35;;;;;;;8.71;100.00;99049.88;4986154;28;20057;-58
2024/02/21 05:33:51;;;;;;;0.10;0.10;;;;;;;8.73;100.00;99044.75;4988083;28;20077;-59
2024/02/21 05:36:18;;;;;;;1.08;0.10;;;;;;;8.73;100.00;99040.03;4987619;28;20432;-60
2024/02/21 05:38:46;;;;;;;0.28;0.20;;;;;;;8.74;100.00;99025.06;4987912;28;20054;-59
2024/02/21 05:41:13;;;;;;;0.20;0.20;;;;;;;8.76;100.00;99017.22;4988191;28;20049;-60
2024/02/21 05:43:40;;;;;;;0.30;0.28;;;;;;;8.78;100.00;99008.56;4987181;28;20069;-57
2024/02/21 05:46:08;;;;;;;0.10;0.10;;;;;;;8.78;100.00;99008.56;4987587;28;20050;-57
2024/02/21 05:48:35;;;;;;;0.88;0.30;;;;;;;8.78;100.00;98992.81;4987656;28;20042;-59
2024/02/21 05:51:06;;;;;;;0.80;0.40;;;;;;;8.80;100.00;98968.38;4978073;28;20057;-58
2024/02/21 05:53:33;;;;;;;1.58;0.40;;;;;;;8.81;100.00;98952.63;4987618;28;20053;-58
2024/02/21 05:56:01;;;;;;;0.50;0.50;;;;;;;8.82;100.00;98960.53;4987621;28;20057;-56
2024/02/21 05:58:29;;;;;;;1.20;0.55;;;;;;;8.83;100.00;98940.03;4987038;28;20069;-59
2024/02/21 06:00:56;;;;;;;0.85;0.85;;;;;;;8.85;100.00;98937.69;4993011;28;20061;-58
2024/02/21 06:03:24;;;;;;;0.93;0.60;;;;;;;8.86;100.00;98910.91;4987500;28;20050;-56
2024/02/21 06:05:51;;;;;;;3.70;0.98;;;;;;;8.87;100.00;98907.75;4987230;28;20054;-58
2024/02/21 06:08:18;;;;;;;1.02;0.47;;;;;;;8.88;100.00;98887.28;4987148;28;20054;-55
2024/02/21 06:10:47;;;;;;;1.27;0.55;;;;;;;8.90;100.00;98867.56;4987306;28;20058;-57
2024/02/21 06:13:14;;;;;;;2.45;0.80;;;;;;;8.91;100.00;98849.84;4986484;28;20062;-59
2024/02/21 06:15:42;;;;;;;2.08;0.50;;;;;;;8.92;100.00;98852.22;4987545;28;20054;-55
2024/02/21 06:18:09;;;;;;;0.70;0.60;;;;;;;8.93;100.00;98844.72;4987222;28;20050;-57
2024/02/21 06:20:39;;;;;;;1.67;0.60;;;;;;;8.96;100.00;98838.47;4986097;28;20407;-58
2024/02/21 06:23:06;;;;;;;1.15;0.47;;;;;;;8.99;100.00;98821.94;4986435;28;20058;-54
2024/02/21 06:25:34;;;;;;;2.00;0.40;;;;;;;9.00;100.00;98817.97;4984329;28;20077;-58
2024/02/21 06:28:01;;;;;;;1.40;0.30;;;;;;;9.03;100.00;98817.22;4986714;28;20050;-58
2024/02/21 06:30:29;;;;;;;4.13;0.60;;;;;;;9.04;100.00;98791.22;4988323;28;20062;-57
2024/02/21 06:32:56;;;;;;;1.17;0.55;;;;;;;9.06;100.00;98785.31;4986854;28;20468;-55
2024/02/21 06:35:27;;;;;;;2.63;0.60;;;;;;;9.06;100.00;98777.81;4987701;28;20058;-58
2024/02/21 06:37:54;;;;;;;1.20;0.30;;;;;;;9.08;100.00;98763.66;4988527;28;20532;-55
2024/02/21 06:40:22;;;;;;;0.28;0.20;;;;;;;9.10;100.00;98756.56;4988141;28;20050;-60
2024/02/21 06:42:50;;;;;;;3.05;0.50;;;;;;;9.12;100.00;98754.22;4987354;28;20050;-62
2024/02/21 06:45:18;;;;;;;3.08;0.50;;;;;;;9.14;100.00;98746.34;4987426;28;20061;-58
2024/02/21 06:47:45;;;;;;;2.45;0.52;;;;;;;9.16;100.00;98732.94;4987754;28;20042;-58
2024/02/21 06:50:12;;;;;;;6.03;0.30;;;;;;;9.18;100.00;98744.41;4987808;28;20054;-58
2024/02/21 06:52:40;;;;;;;1.98;0.35;;;;;;;9.18;100.00;98722.31;4987533;28;20046;-58
2024/02/21 06:55:07;;;;;;;1.88;0.30;;;;;;;9.21;100.00;98719.97;4988327;28;20057;-58
2024/02/21 06:57:35;;;;;;;1.05;0.30;;;;;;;9.24;100.00;98702.63;4987826;28;20061;-60
2024/02/21 07:00:02;;;;;;;0.98;0.17;;;;;;;9.26;100.00;98703.03;4988551;28;20073;-60
2024/02/21 07:02:30;;;;;;;1.63;0.10;;;;;;;9.27;100.00;98699.06;4986942;28;20062;-59
2024/02/21 07:04:57;;;;;;;0.38;0.10;;;;;;;9.31;100.00;98691.63;4982457;28;20543;-58
2024/02/21 07:07:25;;;;;;;1.42;0.15;;;;;;;9.32;100.00;98690.44;4987536;28;20543;-60
2024/02/21 07:09:53;;;;;;;0.20;0.20;;;;;;;9.35;100.00;98673.06;4987497;28;20070;-60
2024/02/21 07:12:21;;;;;;;0.32;0.10;;;;;;;9.37;100.00;98668.75;4986834;28;20058;-60
2024/02/21 07:14:48;;;;;;;1.45;0.10;;;;;;;9.41;100.00;98660.50;4986888;28;20707;-60
2024/02/21 07:17:15;;;;;;;0.00;0.00;;;;;;;9.44;100.00;98654.19;4987810;28;20053;-60
2024/02/21 07:19:43;;;;;;;0.10;0.10;;;;;;;9.47;100.00;98642.38;4986984;28;20393;-59
2024/02/21 07:22:10;;;;;;;0.10;0.08;;;;;;;9.54;100.00;98631.34;4987459;28;20061;-61
2024/02/21 07:24:37;;;;;;;0.10;0.10;;;;;;;9.66;100.00;98633.75;5000491;28;20053;-59
2024/02/21 07:27:04;;;;;;;0.20;0.00;;;;;;;9.75;100.00;98612.06;4987920;28;20081;-58
2024/02/21 07:29:32;;;;;;;0.15;0.10;;;;;;;9.80;100.00;98614.44;4986759;28;20480;-58
2024/02/21 07:32:00;;;;;;;0.20;0.00;;;;;;;9.84;100.00;98629.06;4985410;28;20542;-57
2024/02/21 07:34:27;;;;;;;0.00;0.00;;;;;;;9.90;100.00;98621.97;4987207;28;20058;-59
2024/02/21 07:36:56;;;;;;;0.05;0.05;;;;;;;9.96;100.00;98612.09;4987713;28;20046;-60
2024/02/21 07:39:23;;;;;;;0.00;0.00;;;;;;;10.01;100.00;98606.19;4987706;28;20058;-59
2024/02/21 07:41:50;;;;;;;0.22;0.00;;;;;;;10.05;100.00;98592.38;4987057;28;20039;-59
2024/02/21 07:44:18;;;;;;;0.00;0.00;;;;;;;10.07;100.00;98590.00;4992051;28;20058;-60
2024/02/21 07:46:45;;;;;;;0.00;0.00;;;;;;;10.09;100.00;98584.84;4991510;28;20496;-58
2024/02/21 07:49:15;;;;;;;0.25;0.08;;;;;;;10.10;100.00;98576.19;4992406;28;20047;-61
2024/02/21 07:51:42;;;;;;;0.00;0.00;;;;;;;10.12;100.00;98557.25;4990048;28;20127;-59
2024/02/21 07:54:09;;;;;;;0.20;0.00;;;;;;;10.17;100.00;98548.56;4981306;28;20050;-59
2024/02/21 07:56:42;;;;;;;0.05;0.00;;;;;;;10.19;100.00;98551.72;4991271;28;20050;-60
2024/02/21 07:59:10;;;;;;;0.75;0.10;;;;;;;10.20;100.00;98558.03;4992051;28;20054;-60
2024/02/21 08:01:38;;;;;;;0.10;0.00;;;;;;;10.22;100.00;98545.41;4990527;28;20065;-59
2024/02/21 08:04:05;;;;;;;0.10;0.05;;;;;;;10.23;100.00;98535.94;4989970;28;20097;-57
2024/02/21 08:06:33;;;;;;;0.03;0.00;;;;;;;10.25;100.00;98555.66;4990112;28;20050;-56
2024/02/21 08:09:00;;;;;;;0.00;0.00;;;;;;;10.27;100.00;98542.22;4991477;28;20042;-59
2024/02/21 08:11:28;;;;;;;0.38;0.05;;;;;;;10.30;100.00;98535.91;4990687;28;20054;-59
2024/02/21 08:13:55;;;;;;;0.10;0.00;;;;;;;10.33;100.00;98543.41;4980195;28;20420;-58
2024/02/21 08:16:26;;;;;;;0.00;0.00;;;;;;;10.34;100.00;98528.41;4989150;28;20404;-60
2024/02/21 08:18:53;;;;;;;0.20;0.10;;;;;;;10.36;100.00;98523.25;4990770;28;20065;-59
2024/02/21 08:21:21;;;;;;;0.50;0.15;;;;;;;10.39;100.00;98500.34;4989323;28;20054;-59
2024/02/21 08:23:51;;;;;;;0.10;0.10;;;;;;;10.42;100.00;98493.22;4989466;28;20170;-58
2024/02/21 08:26:18;;;;;;;0.05;0.03;;;;;;;10.47;100.00;98494.78;4990102;28;20046;-60
2024/02/21 08:28:46;;;;;;;0.00;0.00;;;;;;;10.51;100.00;98498.34;4989726;28;20339;-61
2024/02/21 08:31:19;;;;;;;2.53;1.08;;;;;;;10.53;100.00;98479.38;4987270;28;20129;-60
2024/02/21 08:33:47;;;;;;;0.22;0.15;;;;;;;10.54;100.00;98475.41;4988766;28;20042;-58
2024/02/21 08:36:19;;;;;;;0.00;0.00;;;;;;;10.57;100.00;98488.44;4990351;28;20046;-60
2024/02/21 08:38:47;;;;;;;0.85;0.10;;;;;;;10.60;100.00;98466.28;4989494;28;20058;-60
2024/02/21 08:41:14;;;;;;;0.32;0.10;;;;;;;10.61;100.00;98456.03;4989468;28;20728;-62
2024/02/21 08:43:41;;;;;;;0.03;0.00;;;;;;;10.63;100.00;98451.66;4988766;28;20050;-59
2024/02/21 08:46:09;;;;;;;0.10;0.10;;;;;;;10.66;100.00;98436.22;4990182;28;20057;-60
2024/02/21 08:48:36;;;;;;;0.20;0.10;;;;;;;10.68;100.00;98444.91;4989042;28;20231;-60
2024/02/21 08:51:04;;;;;;;0.10;0.10;;;;;;;10.69;100.00;98439.00;4988636;28;20058;-60
2024/02/21 08:53:31;;;;;;;0.28;0.10;;;;;;;10.73;100.00;98433.44;4987774;28;20046;-58
2024/02/21 08:55:59;;;;;;;0.10;0.05;;;;;;;10.77;100.00;98442.53;4989806;28;20073;-60
2024/02/21 08:58:26;;;;;;;0.10;0.10;;;;;;;10.80;100.00;98438.94;4986726;28;20154;-60
2024/02/21 09:00:54;;;;;;;0.00;0.00;;;;;;;10.84;100.00;98429.44;4989295;28;20054;-60
2024/02/21 09:03:21;;;;;;;1.02;0.13;;;;;;;10.87;100.00;98419.53;4989175;28;20697;-60
2024/02/21 09:05:49;;;;;;;0.88;0.30;;;;;;;10.92;100.00;98427.41;4988563;28;20054;-60
2024/02/21 09:08:16;;;;;;;2.05;0.28;;;;;;;10.95;100.00;98421.88;4987368;28;20488;-63
2024/02/21 09:10:43;;;;;;;0.30;0.28;;;;;;;10.99;100.00;98416.28;4989294;28;20065;-61
2024/02/21 09:13:11;;;;;;;0.10;0.10;;;;;;;11.03;100.00;98417.06;4989059;28;20051;-62
2024/02/21 09:15:38;;;;;;;1.65;0.22;;;;;;;11.04;100.00;98417.88;4987744;28;20043;-60
2024/02/21 09:18:06;;;;;;;0.30;0.10;;;;;;;11.07;100.00;98414.28;4989229;28;20050;-60
2024/02/21 09:20:33;;;;;;;0.20;0.20;;;;;;;11.10;100.00;98427.31;4988981;28;20058;-61
2024/02/21 09:23:01;;;;;;;0.45;0.20;;;;;;;11.11;100.00;98435.22;4988718;28;20408;-60
2024/02/21 09:25:30;;;;;;;1.65;0.10;;;;;;;11.12;100.00;98425.69;4988034;28;20050;-59
2024/02/21 09:27:58;;;;;;;0.10;0.00;;;;;;;11.16;100.00;98426.47;4988491;28;20689;-60
2024/02/21 09:30:25;;;;;;;0.20;0.20;;;;;;;11.23;100.00;98425.63;4988854;28;20050;-60
2024/02/21 09:32:52;;;;;;;0.13;0.10;;;;;;;11.30;100.00;98429.16;4988865;28;20061;-61
2024/02/21 09:35:23;;;;;;;0.75;0.10;;;;;;;11.37;100.00;98442.97;4988710;28;20053;-60
2024/02/21 09:37:50;;;;;;;0.28;0.10;;;;;;;11.45;100.00;98427.88;4988208;28;20058;-60
2024/02/21 09:40:18;;;;;;;0.10;0.10;;;;;;;11.50;100.00;98424.66;4987888;28;20058;-60
2024/02/21 09:42:47;;;;;;;0.30;0.10;;;;;;;11.60;100.00;98421.00;4988828;28;20393;-60
2024/02/21 09:45:23;;;;;;;0.38;0.20;;;;;;;11.69;100.00;98422.56;4988110;28;20062;-60
2024/02/21 09:48:27;;;;;;;1.10;0.38;;;;;;;11.74;100.00;98430.44;4988832;28;20049;-61
2024/02/21 09:51:00;;;;;;;0.10;0.10;;;;;;;11.81;100.00;98413.75;4985074;28;20054;-61
2024/02/21 09:53:29;;;;;;;0.05;0.05;;;;;;;11.86;100.00;98416.84;4988198;28;20049;-60
2024/02/21 09:55:57;;;;;;;0.10;0.10;;;;;;;11.94;100.00;98426.69;4988551;28;20512;-60
2024/02/21 09:58:27;;;;;;;0.20;0.00;;;;;;;12.03;100.00;98428.97;4987966;28;20489;-61
2024/02/21 10:00:54;;;;;;;0.80;0.20;;;;;;;12.11;100.00;98413.84;4987140;28;20310;-61
2024/02/21 10:03:22;;;;;;;0.65;0.10;;;;;;;12.14;100.00;98399.16;4987446;28;20527;-60
2024/02/21 10:05:50;;;;;;;0.28;0.20;;;;;;;12.12;100.00;98421.78;4987270;28;20061;-60
2024/02/21 10:08:19;;;;;;;0.52;0.10;;;;;;;12.10;100.00;98429.69;4982877;28;20051;-60
2024/02/21 10:10:46;;;;;;;0.45;0.10;;;;;;;12.08;100.00;98431.31;4986467;28;20050;-62
2024/02/21 10:13:27;;;;;;;0.50;0.10;;;;;;;12.07;100.00;98426.97;4987787;28;20129;-59
2024/02/21 10:16:21;;;;;;;0.10;0.10;;;;;;;12.06;100.00;98442.81;4987130;28;20062;-61
2024/02/21 10:18:54;;;;;;;0.45;0.10;;;;;;;12.05;100.00;98426.56;4986526;28;20061;-60
2024/02/21 10:21:21;;;;;;;0.05;0.05;;;;;;;12.01;100.00;98432.19;4987538;28;20077;-61
2024/02/21 10:23:50;;;;;;;0.35;0.10;;;;;;;11.98;100.00;98438.53;4985150;28;20724;-61
2024/02/21 10:26:19;;;;;;;0.00;0.00;;;;;;;11.98;100.00;98438.53;4976151;28;20071;-61
2024/02/21 10:28:48;;;;;;;0.00;0.00;;;;;;;12.00;100.00;98436.13;4988130;28;20050;-60
2024/02/21 10:31:24;;;;;;;0.00;0.00;;;;;;;12.04;100.00;98436.13;4987558;28;20054;-60
2024/02/21 10:33:59;;;;;;;1.05;0.13;;;;;;;12.07;100.00;98441.59;4986644;28;20053;-61
2024/02/21 10:36:27;;;;;;;0.00;0.00;;;;;;;12.12;100.00;98459.81;4986889;28;20519;-61
2024/02/21 10:38:55;;;;;;;0.38;0.10;;;;;;;12.16;100.00;98455.00;4978885;28;20046;-60
2024/02/21 10:41:23;;;;;;;0.28;0.10;;;;;;;12.16;100.00;98458.56;4986340;28;20077;-60
2024/02/21 10:43:54;;;;;;;0.20;0.10;;;;;;;12.17;100.00;98456.59;4987385;28;20050;-60
2024/02/21 10:46:23;;;;;;;0.08;0.00;;;;;;;12.16;100.00;98463.31;4987612;28;20500;-60
2024/02/21 10:49:22;;;;;;;0.60;0.20;;;;;;;12.16;100.00;98483.53;4987354;28;20050;-61
2024/02/21 10:52:14;;;;;;;1.13;0.20;;;;;;;12.15;100.00;98475.63;4985236;28;20049;-60
2024/02/21 10:54:51;;;;;;;0.35;0.10;;;;;;;12.15;100.00;98506.16;4967327;28;20523;-60
2024/02/21 10:57:22;;;;;;;0.30;0.10;;;;;;;12.17;100.00;98476.00;4987438;28;20141;-60
2024/02/21 10:59:50;;;;;;;0.43;0.20;;;;;;;12.17;100.00;98482.34;4984073;28;20527;-61
2024/02/21 11:02:18;;;;;;;0.13;0.13;;;;;;;12.20;100.00;98494.63;4987272;28;20531;-60
2024/02/21 11:04:50;;;;;;;0.43;0.20;;;;;;;12.20;100.00;98491.84;4986969;28;20100;-60
2024/02/21 11:07:18;;;;;;;0.43;0.10;;;;;;;12.22;100.00;98486.66;4986794;28;20037;-61
2024/02/21 11:09:52;;;;;;;0.00;0.00;;;;;;;12.21;100.00;98504.50;4986139;28;20050;-60
2024/02/21 11:12:21;;;;;;;0.40;0.10;;;;;;;12.19;100.00;98507.69;4986713;28;20050;-60
2024/02/21 11:14:49;;;;;;;0.63;0.28;;;;;;;12.23;100.00;98505.66;4987173;28;20073;-61
2024/02/21 11:17:17;;;;;;;0.47;0.20;;;;;;;12.29;100.00;98513.53;4988199;28;20042;-66
2024/02/21 11:19:45;;;;;;;0.52;0.00;;;;;;;12.32;100.00;98534.91;4991137;28;20050;-62
2024/02/21 11:22:17;;;;;;;1.10;0.17;;;;;;;12.32;100.00;98537.69;5004382;28;20065;-61
2024/02/21 11:24:45;;;;;;;0.85;0.30;;;;;;;12.29;100.00;98553.16;4989946;28;20061;-61
2024/02/21 11:27:24;;;;;;;1.95;0.40;;;;;;;12.29;100.00;98536.53;4991222;28;20050;-62
2024/02/21 11:29:56;;;;;;;0.13;0.03;;;;;;;12.34;100.00;98551.97;4987854;28;20060;-60
2024/02/21 11:32:25;;;;;;;0.65;0.20;;;;;;;12.36;100.00;98566.22;4990268;28;20512;-60
2024/02/21 11:35:01;;;;;;;1.60;0.20;;;;;;;12.36;100.00;98564.22;4990239;28;20109;-61